sensor_id;sensor_type;location;lat;lon;timestamp;P1;durP1;ratioP1;P2;durP2;ratioP2
74064;SDS011;62421;51.412;5.432;2023-07-28T00:00:56;11.10;;;4.63;;
74064;SDS011;62421;51.412;5.432;2023-07-28T00:03:21;10.50;;;5.30;;
74064;SDS011;62421;51.412;5.432;2023-07-28T00:05:47;8.80;;;4.70;;
74064;SDS011;62421;51.412;5.432;2023-07-28T00:08:12;9.37;;;5.30;;
74064;SDS011;62421;51.412;5.432;2023-07-28T00:10:41;10.67;;;4.73;;
74064;SDS011;62421;51.412;5.432;2023-07-28T00:13:07;8.80;;;4.50;;
74064;SDS011;62421;51.412;5.432;2023-07-28T00:15:33;8.90;;;5.20;;
74064;SDS011;62421;51.412;5.432;2023-07-28T00:17:58;7.70;;;4.77;;
74064;SDS011;62421;51.412;5.432;2023-07-28T00:20:25;8.93;;;5.15;;
74064;SDS011;62421;51.412;5.432;2023-07-28T00:22:51;9.13;;;4.95;;
74064;SDS011;62421;51.412;5.432;2023-07-28T00:25:17;11.73;;;5.07;;
74064;SDS011;62421;51.412;5.432;2023-07-28T00:27:42;8.10;;;4.60;;
74064;SDS011;62421;51.412;5.432;2023-07-28T00:30:07;9.80;;;4.68;;
74064;SDS011;62421;51.412;5.432;2023-07-28T00:32:34;8.03;;;4.53;;
74064;SDS011;62421;51.412;5.432;2023-07-28T00:35:00;9.93;;;4.80;;
74064;SDS011;62421;51.412;5.432;2023-07-28T00:37:25;9.73;;;5.10;;
74064;SDS011;62421;51.412;5.432;2023-07-28T00:39:50;9.00;;;5.30;;
74064;SDS011;62421;51.412;5.432;2023-07-28T00:42:16;8.83;;;5.43;;
74064;SDS011;62421;51.412;5.432;2023-07-28T00:44:41;7.67;;;5.10;;
74064;SDS011;62421;51.412;5.432;2023-07-28T00:47:06;10.37;;;5.03;;
74064;SDS011;62421;51.412;5.432;2023-07-28T00:49:32;8.67;;;4.57;;
74064;SDS011;62421;51.412;5.432;2023-07-28T00:51:57;9.40;;;5.23;;
74064;SDS011;62421;51.412;5.432;2023-07-28T00:54:22;11.63;;;6.00;;
74064;SDS011;62421;51.412;5.432;2023-07-28T00:56:48;9.13;;;5.30;;
74064;SDS011;62421;51.412;5.432;2023-07-28T00:59:14;7.50;;;4.15;;
74064;SDS011;62421;51.412;5.432;2023-07-28T01:01:40;9.27;;;5.03;;
74064;SDS011;62421;51.412;5.432;2023-07-28T01:04:05;8.73;;;5.33;;
74064;SDS011;62421;51.412;5.432;2023-07-28T01:09:31;11.45;;;5.55;;
74064;SDS011;62421;51.412;5.432;2023-07-28T01:12:02;9.63;;;5.60;;
74064;SDS011;62421;51.412;5.432;2023-07-28T01:14:33;9.20;;;4.27;;
74064;SDS011;62421;51.412;5.432;2023-07-28T01:16:58;8.13;;;4.82;;
74064;SDS011;62421;51.412;5.432;2023-07-28T01:19:24;8.73;;;5.03;;
74064;SDS011;62421;51.412;5.432;2023-07-28T01:25:00;9.73;;;4.40;;
74064;SDS011;62421;51.412;5.432;2023-07-28T01:27:39;11.40;;;4.97;;
74064;SDS011;62421;51.412;5.432;2023-07-28T01:30:07;8.90;;;5.13;;
74064;SDS011;62421;51.412;5.432;2023-07-28T01:32:34;8.90;;;5.40;;
74064;SDS011;62421;51.412;5.432;2023-07-28T01:35:01;8.45;;;4.72;;
74064;SDS011;62421;51.412;5.432;2023-07-28T01:37:28;9.35;;;4.72;;
74064;SDS011;62421;51.412;5.432;2023-07-28T01:39:53;9.13;;;4.80;;
74064;SDS011;62421;51.412;5.432;2023-07-28T01:42:19;10.65;;;5.00;;
74064;SDS011;62421;51.412;5.432;2023-07-28T01:44:45;8.73;;;4.32;;
74064;SDS011;62421;51.412;5.432;2023-07-28T01:47:10;10.90;;;4.73;;
74064;SDS011;62421;51.412;5.432;2023-07-28T01:49:35;7.83;;;4.43;;
74064;SDS011;62421;51.412;5.432;2023-07-28T01:52:01;7.93;;;4.53;;
74064;SDS011;62421;51.412;5.432;2023-07-28T01:54:26;8.77;;;4.27;;
74064;SDS011;62421;51.412;5.432;2023-07-28T01:56:51;10.33;;;4.53;;
74064;SDS011;62421;51.412;5.432;2023-07-28T01:59:17;8.80;;;4.83;;
74064;SDS011;62421;51.412;5.432;2023-07-28T02:01:42;9.80;;;4.85;;
74064;SDS011;62421;51.412;5.432;2023-07-28T02:04:08;9.82;;;5.45;;
74064;SDS011;62421;51.412;5.432;2023-07-28T02:06:33;11.47;;;5.13;;
74064;SDS011;62421;51.412;5.432;2023-07-28T02:08:58;14.03;;;5.07;;
74064;SDS011;62421;51.412;5.432;2023-07-28T02:11:24;12.60;;;5.60;;
74064;SDS011;62421;51.412;5.432;2023-07-28T02:13:49;12.48;;;5.50;;
74064;SDS011;62421;51.412;5.432;2023-07-28T02:16:15;10.52;;;5.70;;
74064;SDS011;62421;51.412;5.432;2023-07-28T02:18:40;11.73;;;6.13;;
74064;SDS011;62421;51.412;5.432;2023-07-28T02:21:08;11.87;;;6.40;;
74064;SDS011;62421;51.412;5.432;2023-07-28T02:23:33;13.63;;;6.28;;
74064;SDS011;62421;51.412;5.432;2023-07-28T02:25:59;13.00;;;5.97;;
74064;SDS011;62421;51.412;5.432;2023-07-28T02:28:24;12.30;;;6.77;;
74064;SDS011;62421;51.412;5.432;2023-07-28T02:30:49;12.47;;;6.53;;
74064;SDS011;62421;51.412;5.432;2023-07-28T02:33:15;14.93;;;7.00;;
74064;SDS011;62421;51.412;5.432;2023-07-28T02:35:40;14.18;;;7.43;;
74064;SDS011;62421;51.412;5.432;2023-07-28T02:38:05;15.27;;;7.17;;
74064;SDS011;62421;51.412;5.432;2023-07-28T02:40:32;14.10;;;7.77;;
74064;SDS011;62421;51.412;5.432;2023-07-28T02:42:58;15.75;;;7.55;;
74064;SDS011;62421;51.412;5.432;2023-07-28T02:45:23;15.20;;;7.70;;
74064;SDS011;62421;51.412;5.432;2023-07-28T02:47:49;16.55;;;8.25;;
74064;SDS011;62421;51.412;5.432;2023-07-28T02:50:15;16.40;;;7.77;;
74064;SDS011;62421;51.412;5.432;2023-07-28T02:52:41;17.90;;;8.07;;
74064;SDS011;62421;51.412;5.432;2023-07-28T02:55:06;15.33;;;8.30;;
74064;SDS011;62421;51.412;5.432;2023-07-28T02:57:32;15.60;;;8.63;;
74064;SDS011;62421;51.412;5.432;2023-07-28T02:59:57;18.60;;;10.07;;
74064;SDS011;62421;51.412;5.432;2023-07-28T03:02:23;18.38;;;9.27;;
74064;SDS011;62421;51.412;5.432;2023-07-28T03:04:49;19.93;;;9.90;;
74064;SDS011;62421;51.412;5.432;2023-07-28T03:07:14;18.13;;;9.17;;
74064;SDS011;62421;51.412;5.432;2023-07-28T03:09:40;20.95;;;9.50;;
74064;SDS011;62421;51.412;5.432;2023-07-28T03:12:05;19.45;;;10.38;;
74064;SDS011;62421;51.412;5.432;2023-07-28T03:14:31;22.37;;;10.43;;
74064;SDS011;62421;51.412;5.432;2023-07-28T03:16:57;19.05;;;10.15;;
74064;SDS011;62421;51.412;5.432;2023-07-28T03:19:22;23.13;;;11.63;;
74064;SDS011;62421;51.412;5.432;2023-07-28T03:21:48;25.60;;;12.80;;
74064;SDS011;62421;51.412;5.432;2023-07-28T03:24:13;22.07;;;12.07;;
74064;SDS011;62421;51.412;5.432;2023-07-28T03:26:38;25.92;;;11.40;;
74064;SDS011;62421;51.412;5.432;2023-07-28T03:29:04;25.17;;;12.65;;
74064;SDS011;62421;51.412;5.432;2023-07-28T03:31:29;23.63;;;12.33;;
74064;SDS011;62421;51.412;5.432;2023-07-28T03:33:55;26.13;;;12.60;;
74064;SDS011;62421;51.412;5.432;2023-07-28T03:36:20;26.10;;;12.50;;
74064;SDS011;62421;51.412;5.432;2023-07-28T03:38:46;27.38;;;12.90;;
74064;SDS011;62421;51.412;5.432;2023-07-28T03:41:12;28.30;;;13.93;;
74064;SDS011;62421;51.412;5.432;2023-07-28T03:43:38;27.92;;;12.95;;
74064;SDS011;62421;51.412;5.432;2023-07-28T03:46:03;25.80;;;13.60;;
74064;SDS011;62421;51.412;5.432;2023-07-28T03:48:28;26.77;;;13.60;;
74064;SDS011;62421;51.412;5.432;2023-07-28T03:50:54;28.50;;;13.95;;
74064;SDS011;62421;51.412;5.432;2023-07-28T03:53:19;25.17;;;15.07;;
74064;SDS011;62421;51.412;5.432;2023-07-28T03:55:45;34.73;;;17.80;;
74064;SDS011;62421;51.412;5.432;2023-07-28T03:58:10;31.47;;;17.10;;
74064;SDS011;62421;51.412;5.432;2023-07-28T04:00:35;32.47;;;16.67;;
74064;SDS011;62421;51.412;5.432;2023-07-28T04:03:01;37.67;;;17.40;;
74064;SDS011;62421;51.412;5.432;2023-07-28T04:05:26;34.10;;;17.73;;
74064;SDS011;62421;51.412;5.432;2023-07-28T04:07:52;35.25;;;17.77;;
74064;SDS011;62421;51.412;5.432;2023-07-28T04:10:17;35.10;;;17.58;;
74064;SDS011;62421;51.412;5.432;2023-07-28T04:12:42;37.53;;;19.17;;
74064;SDS011;62421;51.412;5.432;2023-07-28T04:15:08;36.67;;;18.50;;
74064;SDS011;62421;51.412;5.432;2023-07-28T04:17:33;38.97;;;20.73;;
74064;SDS011;62421;51.412;5.432;2023-07-28T04:19:59;40.40;;;21.83;;
74064;SDS011;62421;51.412;5.432;2023-07-28T04:22:24;40.72;;;21.98;;
74064;SDS011;62421;51.412;5.432;2023-07-28T04:24:50;42.17;;;21.97;;
74064;SDS011;62421;51.412;5.432;2023-07-28T04:27:15;46.93;;;23.07;;
74064;SDS011;62421;51.412;5.432;2023-07-28T04:29:40;43.50;;;22.63;;
74064;SDS011;62421;51.412;5.432;2023-07-28T04:32:06;48.07;;;23.33;;
74064;SDS011;62421;51.412;5.432;2023-07-28T04:34:35;48.03;;;23.63;;
74064;SDS011;62421;51.412;5.432;2023-07-28T04:37:00;42.13;;;23.05;;
74064;SDS011;62421;51.412;5.432;2023-07-28T04:39:26;46.80;;;23.57;;
74064;SDS011;62421;51.412;5.432;2023-07-28T04:41:51;48.13;;;24.07;;
74064;SDS011;62421;51.412;5.432;2023-07-28T04:44:17;46.60;;;23.60;;
74064;SDS011;62421;51.412;5.432;2023-07-28T04:46:42;49.10;;;23.83;;
74064;SDS011;62421;51.412;5.432;2023-07-28T04:49:08;47.97;;;25.10;;
74064;SDS011;62421;51.412;5.432;2023-07-28T04:51:33;49.77;;;25.10;;
74064;SDS011;62421;51.412;5.432;2023-07-28T04:53:59;51.77;;;24.37;;
74064;SDS011;62421;51.412;5.432;2023-07-28T04:56:24;50.90;;;25.55;;
74064;SDS011;62421;51.412;5.432;2023-07-28T04:58:49;54.80;;;28.10;;
74064;SDS011;62421;51.412;5.432;2023-07-28T05:01:15;53.20;;;25.93;;
74064;SDS011;62421;51.412;5.432;2023-07-28T05:03:40;57.47;;;27.33;;
74064;SDS011;62421;51.412;5.432;2023-07-28T05:06:06;60.60;;;27.42;;
74064;SDS011;62421;51.412;5.432;2023-07-28T05:08:31;62.30;;;26.92;;
74064;SDS011;62421;51.412;5.432;2023-07-28T05:10:57;61.43;;;28.00;;
74064;SDS011;62421;51.412;5.432;2023-07-28T05:13:22;60.50;;;26.43;;
74064;SDS011;62421;51.412;5.432;2023-07-28T05:15:48;52.97;;;26.63;;
74064;SDS011;62421;51.412;5.432;2023-07-28T05:18:13;54.10;;;26.83;;
74064;SDS011;62421;51.412;5.432;2023-07-28T05:20:38;53.47;;;26.33;;
74064;SDS011;62421;51.412;5.432;2023-07-28T05:23:04;55.57;;;26.47;;
74064;SDS011;62421;51.412;5.432;2023-07-28T05:25:29;54.07;;;25.83;;
74064;SDS011;62421;51.412;5.432;2023-07-28T05:27:55;50.33;;;24.50;;
74064;SDS011;62421;51.412;5.432;2023-07-28T05:30:20;49.33;;;24.43;;
74064;SDS011;62421;51.412;5.432;2023-07-28T05:32:46;53.70;;;23.50;;
74064;SDS011;62421;51.412;5.432;2023-07-28T05:35:12;47.30;;;23.42;;
74064;SDS011;62421;51.412;5.432;2023-07-28T05:37:37;44.30;;;22.27;;
74064;SDS011;62421;51.412;5.432;2023-07-28T05:40:03;50.05;;;22.50;;
74064;SDS011;62421;51.412;5.432;2023-07-28T05:42:29;51.50;;;22.73;;
74064;SDS011;62421;51.412;5.432;2023-07-28T05:44:54;46.57;;;22.43;;
74064;SDS011;62421;51.412;5.432;2023-07-28T05:47:20;45.83;;;21.15;;
74064;SDS011;62421;51.412;5.432;2023-07-28T05:49:46;41.77;;;19.40;;
74064;SDS011;62421;51.412;5.432;2023-07-28T05:52:11;42.40;;;18.90;;
74064;SDS011;62421;51.412;5.432;2023-07-28T05:54:37;37.97;;;17.07;;
74064;SDS011;62421;51.412;5.432;2023-07-28T05:57:02;32.33;;;15.57;;
74064;SDS011;62421;51.412;5.432;2023-07-28T05:59:27;33.40;;;14.10;;
74064;SDS011;62421;51.412;5.432;2023-07-28T06:01:53;28.67;;;13.60;;
74064;SDS011;62421;51.412;5.432;2023-07-28T06:04:18;27.30;;;12.23;;
74064;SDS011;62421;51.412;5.432;2023-07-28T06:06:44;26.27;;;12.53;;
74064;SDS011;62421;51.412;5.432;2023-07-28T06:09:09;23.67;;;12.10;;
74064;SDS011;62421;51.412;5.432;2023-07-28T06:11:34;21.13;;;10.93;;
74064;SDS011;62421;51.412;5.432;2023-07-28T06:14:00;22.93;;;10.23;;
74064;SDS011;62421;51.412;5.432;2023-07-28T06:16:25;20.27;;;9.90;;
74064;SDS011;62421;51.412;5.432;2023-07-28T06:18:50;19.27;;;9.20;;
74064;SDS011;62421;51.412;5.432;2023-07-28T06:21:16;15.25;;;8.13;;
74064;SDS011;62421;51.412;5.432;2023-07-28T06:23:41;14.60;;;8.60;;
74064;SDS011;62421;51.412;5.432;2023-07-28T06:26:06;13.87;;;8.00;;
74064;SDS011;62421;51.412;5.432;2023-07-28T06:28:32;15.17;;;9.00;;
74064;SDS011;62421;51.412;5.432;2023-07-28T06:30:57;13.13;;;7.77;;
74064;SDS011;62421;51.412;5.432;2023-07-28T06:33:27;13.02;;;7.05;;
74064;SDS011;62421;51.412;5.432;2023-07-28T06:35:53;18.50;;;7.25;;
74064;SDS011;62421;51.412;5.432;2023-07-28T06:38:18;14.67;;;7.20;;
74064;SDS011;62421;51.412;5.432;2023-07-28T06:40:44;10.93;;;6.83;;
74064;SDS011;62421;51.412;5.432;2023-07-28T06:43:09;11.57;;;7.27;;
74064;SDS011;62421;51.412;5.432;2023-07-28T06:45:35;10.17;;;6.67;;
74064;SDS011;62421;51.412;5.432;2023-07-28T06:48:00;10.40;;;6.20;;
74064;SDS011;62421;51.412;5.432;2023-07-28T06:50:25;15.57;;;6.55;;
74064;SDS011;62421;51.412;5.432;2023-07-28T06:52:51;13.87;;;6.37;;
74064;SDS011;62421;51.412;5.432;2023-07-28T06:55:17;11.27;;;6.77;;
74064;SDS011;62421;51.412;5.432;2023-07-28T06:57:42;11.25;;;6.10;;
74064;SDS011;62421;51.412;5.432;2023-07-28T07:00:08;10.23;;;6.23;;
74064;SDS011;62421;51.412;5.432;2023-07-28T07:02:34;11.38;;;6.68;;
74064;SDS011;62421;51.412;5.432;2023-07-28T07:05:00;14.03;;;6.17;;
74064;SDS011;62421;51.412;5.432;2023-07-28T07:07:26;10.40;;;5.70;;
74064;SDS011;62421;51.412;5.432;2023-07-28T07:09:51;10.80;;;5.77;;
74064;SDS011;62421;51.412;5.432;2023-07-28T07:12:17;7.83;;;5.50;;
74064;SDS011;62421;51.412;5.432;2023-07-28T07:14:42;9.02;;;5.50;;
74064;SDS011;62421;51.412;5.432;2023-07-28T07:17:08;7.43;;;5.20;;
74064;SDS011;62421;51.412;5.432;2023-07-28T07:19:33;10.73;;;5.57;;
74064;SDS011;62421;51.412;5.432;2023-07-28T07:21:58;8.77;;;5.33;;
74064;SDS011;62421;51.412;5.432;2023-07-28T07:24:24;8.07;;;4.63;;
74064;SDS011;62421;51.412;5.432;2023-07-28T07:26:49;11.37;;;5.20;;
74064;SDS011;62421;51.412;5.432;2023-07-28T07:29:15;7.63;;;4.95;;
74064;SDS011;62421;51.412;5.432;2023-07-28T07:31:41;6.97;;;4.40;;
74064;SDS011;62421;51.412;5.432;2023-07-28T07:34:06;8.27;;;4.57;;
74064;SDS011;62421;51.412;5.432;2023-07-28T07:36:32;9.85;;;4.47;;
74064;SDS011;62421;51.412;5.432;2023-07-28T07:38:58;6.40;;;4.18;;
74064;SDS011;62421;51.412;5.432;2023-07-28T07:41:23;9.70;;;3.95;;
74064;SDS011;62421;51.412;5.432;2023-07-28T07:43:50;5.95;;;3.90;;
74064;SDS011;62421;51.412;5.432;2023-07-28T07:46:18;7.32;;;3.63;;
74064;SDS011;62421;51.412;5.432;2023-07-28T07:48:46;6.25;;;3.70;;
74064;SDS011;62421;51.412;5.432;2023-07-28T07:51:12;8.23;;;3.40;;
74064;SDS011;62421;51.412;5.432;2023-07-28T07:53:37;6.70;;;3.37;;
74064;SDS011;62421;51.412;5.432;2023-07-28T07:56:03;6.57;;;3.30;;
74064;SDS011;62421;51.412;5.432;2023-07-28T07:58:29;7.38;;;3.63;;
74064;SDS011;62421;51.412;5.432;2023-07-28T08:00:55;9.17;;;3.80;;
74064;SDS011;62421;51.412;5.432;2023-07-28T08:03:20;7.70;;;3.58;;
74064;SDS011;62421;51.412;5.432;2023-07-28T08:05:46;5.75;;;3.53;;
74064;SDS011;62421;51.412;5.432;2023-07-28T08:08:12;5.53;;;3.30;;
74064;SDS011;62421;51.412;5.432;2023-07-28T08:10:40;8.93;;;4.10;;
74064;SDS011;62421;51.412;5.432;2023-07-28T08:13:05;4.82;;;3.45;;
74064;SDS011;62421;51.412;5.432;2023-07-28T08:15:31;7.75;;;3.33;;
74064;SDS011;62421;51.412;5.432;2023-07-28T08:17:56;5.30;;;3.10;;
74064;SDS011;62421;51.412;5.432;2023-07-28T08:20:21;5.53;;;3.77;;
74064;SDS011;62421;51.412;5.432;2023-07-28T08:22:47;6.17;;;3.60;;
74064;SDS011;62421;51.412;5.432;2023-07-28T08:25:12;5.33;;;3.03;;
74064;SDS011;62421;51.412;5.432;2023-07-28T08:27:37;5.90;;;3.80;;
74064;SDS011;62421;51.412;5.432;2023-07-28T08:30:03;6.22;;;2.95;;
74064;SDS011;62421;51.412;5.432;2023-07-28T08:32:30;6.70;;;2.70;;
74064;SDS011;62421;51.412;5.432;2023-07-28T08:34:56;6.72;;;2.78;;
74064;SDS011;62421;51.412;5.432;2023-07-28T08:37:21;8.40;;;3.30;;
74064;SDS011;62421;51.412;5.432;2023-07-28T08:39:46;5.67;;;3.07;;
74064;SDS011;62421;51.412;5.432;2023-07-28T08:42:12;8.07;;;3.63;;
74064;SDS011;62421;51.412;5.432;2023-07-28T08:44:37;5.40;;;3.30;;
74064;SDS011;62421;51.412;5.432;2023-07-28T08:47:03;8.02;;;3.35;;
74064;SDS011;62421;51.412;5.432;2023-07-28T08:49:30;9.60;;;3.00;;
74064;SDS011;62421;51.412;5.432;2023-07-28T08:51:58;6.35;;;2.72;;
74064;SDS011;62421;51.412;5.432;2023-07-28T08:54:24;4.97;;;2.75;;
74064;SDS011;62421;51.412;5.432;2023-07-28T08:56:50;4.83;;;2.80;;
74064;SDS011;62421;51.412;5.432;2023-07-28T08:59:22;5.47;;;2.80;;
74064;SDS011;62421;51.412;5.432;2023-07-28T09:01:50;5.38;;;2.95;;
74064;SDS011;62421;51.412;5.432;2023-07-28T09:04:16;3.78;;;1.90;;
74064;SDS011;62421;51.412;5.432;2023-07-28T09:06:44;5.83;;;2.53;;
74064;SDS011;62421;51.412;5.432;2023-07-28T09:09:10;9.50;;;2.67;;
74064;SDS011;62421;51.412;5.432;2023-07-28T09:11:43;5.63;;;2.57;;
74064;SDS011;62421;51.412;5.432;2023-07-28T09:14:13;5.85;;;2.75;;
74064;SDS011;62421;51.412;5.432;2023-07-28T09:16:41;5.57;;;3.13;;
74064;SDS011;62421;51.412;5.432;2023-07-28T09:19:07;7.95;;;3.17;;
74064;SDS011;62421;51.412;5.432;2023-07-28T09:21:33;4.45;;;3.00;;
74064;SDS011;62421;51.412;5.432;2023-07-28T09:23:59;6.32;;;2.65;;
74064;SDS011;62421;51.412;5.432;2023-07-28T09:26:44;4.97;;;3.38;;
74064;SDS011;62421;51.412;5.432;2023-07-28T09:29:17;8.07;;;2.90;;
74064;SDS011;62421;51.412;5.432;2023-07-28T09:31:44;4.68;;;2.22;;
74064;SDS011;62421;51.412;5.432;2023-07-28T09:34:11;3.72;;;2.30;;
74064;SDS011;62421;51.412;5.432;2023-07-28T09:36:38;4.30;;;2.20;;
74064;SDS011;62421;51.412;5.432;2023-07-28T09:39:05;4.63;;;2.42;;
74064;SDS011;62421;51.412;5.432;2023-07-28T09:41:35;9.00;;;2.43;;
74064;SDS011;62421;51.412;5.432;2023-07-28T09:44:04;4.13;;;2.50;;
74064;SDS011;62421;51.412;5.432;2023-07-28T09:46:32;3.60;;;2.17;;
74064;SDS011;62421;51.412;5.432;2023-07-28T09:49:01;4.18;;;2.22;;
74064;SDS011;62421;51.412;5.432;2023-07-28T09:51:30;3.45;;;1.67;;
74064;SDS011;62421;51.412;5.432;2023-07-28T09:54:13;4.47;;;1.80;;
74064;SDS011;62421;51.412;5.432;2023-07-28T09:56:52;4.95;;;1.88;;
74064;SDS011;62421;51.412;5.432;2023-07-28T09:59:24;3.28;;;1.80;;
74064;SDS011;62421;51.412;5.432;2023-07-28T10:01:55;5.10;;;1.83;;
74064;SDS011;62421;51.412;5.432;2023-07-28T10:04:22;5.10;;;2.30;;
74064;SDS011;62421;51.412;5.432;2023-07-28T10:06:48;4.10;;;2.03;;
74064;SDS011;62421;51.412;5.432;2023-07-28T10:09:15;3.53;;;2.30;;
74064;SDS011;62421;51.412;5.432;2023-07-28T10:11:41;3.23;;;2.00;;
74064;SDS011;62421;51.412;5.432;2023-07-28T10:14:07;6.32;;;1.70;;
74064;SDS011;62421;51.412;5.432;2023-07-28T10:16:38;4.57;;;2.20;;
74064;SDS011;62421;51.412;5.432;2023-07-28T10:19:05;5.47;;;2.20;;
74064;SDS011;62421;51.412;5.432;2023-07-28T10:21:31;7.35;;;2.22;;
74064;SDS011;62421;51.412;5.432;2023-07-28T10:24:00;6.87;;;2.13;;
74064;SDS011;62421;51.412;5.432;2023-07-28T10:26:35;4.63;;;1.80;;
74064;SDS011;62421;51.412;5.432;2023-07-28T10:29:08;4.47;;;2.03;;
74064;SDS011;62421;51.412;5.432;2023-07-28T10:31:48;5.20;;;1.80;;
74064;SDS011;62421;51.412;5.432;2023-07-28T10:34:18;3.78;;;1.88;;
74064;SDS011;62421;51.412;5.432;2023-07-28T10:36:44;3.47;;;1.83;;
74064;SDS011;62421;51.412;5.432;2023-07-28T10:39:14;2.83;;;1.67;;
74064;SDS011;62421;51.412;5.432;2023-07-28T10:42:03;6.93;;;1.73;;
74064;SDS011;62421;51.412;5.432;2023-07-28T10:44:31;3.33;;;1.40;;
74064;SDS011;62421;51.412;5.432;2023-07-28T10:46:57;5.28;;;1.70;;
74064;SDS011;62421;51.412;5.432;2023-07-28T10:49:24;7.50;;;1.50;;
74064;SDS011;62421;51.412;5.432;2023-07-28T10:51:50;4.22;;;1.45;;
74064;SDS011;62421;51.412;5.432;2023-07-28T10:54:15;3.23;;;1.40;;
74064;SDS011;62421;51.412;5.432;2023-07-28T10:56:45;4.05;;;1.63;;
74064;SDS011;62421;51.412;5.432;2023-07-28T10:59:11;3.53;;;1.57;;
74064;SDS011;62421;51.412;5.432;2023-07-28T11:01:37;4.70;;;1.60;;
74064;SDS011;62421;51.412;5.432;2023-07-28T11:06:31;5.18;;;1.48;;
74064;SDS011;62421;51.412;5.432;2023-07-28T11:08:57;3.67;;;1.38;;
74064;SDS011;62421;51.412;5.432;2023-07-28T11:11:23;2.73;;;1.47;;
74064;SDS011;62421;51.412;5.432;2023-07-28T11:13:48;4.73;;;1.30;;
74064;SDS011;62421;51.412;5.432;2023-07-28T11:16:14;3.13;;;1.27;;
74064;SDS011;62421;51.412;5.432;2023-07-28T11:18:39;1.92;;;1.10;;
74064;SDS011;62421;51.412;5.432;2023-07-28T11:21:05;3.50;;;1.40;;
74064;SDS011;62421;51.412;5.432;2023-07-28T11:23:30;2.70;;;1.37;;
74064;SDS011;62421;51.412;5.432;2023-07-28T11:25:55;2.73;;;1.10;;
74064;SDS011;62421;51.412;5.432;2023-07-28T11:28:21;4.20;;;1.13;;
74064;SDS011;62421;51.412;5.432;2023-07-28T11:30:47;6.28;;;1.33;;
74064;SDS011;62421;51.412;5.432;2023-07-28T11:33:12;3.17;;;1.33;;
74064;SDS011;62421;51.412;5.432;2023-07-28T11:35:38;4.68;;;2.00;;
74064;SDS011;62421;51.412;5.432;2023-07-28T11:38:05;3.13;;;1.60;;
74064;SDS011;62421;51.412;5.432;2023-07-28T11:40:31;4.25;;;1.38;;
74064;SDS011;62421;51.412;5.432;2023-07-28T11:42:58;3.50;;;1.30;;
74064;SDS011;62421;51.412;5.432;2023-07-28T11:45:24;6.00;;;1.40;;
74064;SDS011;62421;51.412;5.432;2023-07-28T11:47:54;2.63;;;1.03;;
74064;SDS011;62421;51.412;5.432;2023-07-28T11:50:23;2.22;;;1.00;;
74064;SDS011;62421;51.412;5.432;2023-07-28T11:52:50;3.25;;;1.45;;
74064;SDS011;62421;51.412;5.432;2023-07-28T11:55:16;4.47;;;1.80;;
74064;SDS011;62421;51.412;5.432;2023-07-28T11:57:42;4.90;;;0.93;;
74064;SDS011;62421;51.412;5.432;2023-07-28T12:00:08;2.83;;;1.00;;
74064;SDS011;62421;51.412;5.432;2023-07-28T12:02:34;5.07;;;0.90;;
74064;SDS011;62421;51.412;5.432;2023-07-28T12:05:00;2.53;;;1.35;;
74064;SDS011;62421;51.412;5.432;2023-07-28T12:07:31;2.47;;;1.23;;
74064;SDS011;62421;51.412;5.432;2023-07-28T12:09:57;2.72;;;0.98;;
74064;SDS011;62421;51.412;5.432;2023-07-28T12:12:29;5.72;;;1.27;;
74064;SDS011;62421;51.412;5.432;2023-07-28T12:14:56;4.10;;;1.00;;
74064;SDS011;62421;51.412;5.432;2023-07-28T12:17:29;1.88;;;0.77;;
74064;SDS011;62421;51.412;5.432;2023-07-28T12:22:20;5.43;;;1.10;;
74064;SDS011;62421;51.412;5.432;2023-07-28T12:24:45;3.80;;;0.93;;
74064;SDS011;62421;51.412;5.432;2023-07-28T12:27:10;4.43;;;1.13;;
74064;SDS011;62421;51.412;5.432;2023-07-28T12:29:38;5.07;;;1.13;;
74064;SDS011;62421;51.412;5.432;2023-07-28T12:32:03;7.37;;;0.80;;
74064;SDS011;62421;51.412;5.432;2023-07-28T12:34:29;4.35;;;1.10;;
74064;SDS011;62421;51.412;5.432;2023-07-28T12:36:54;3.43;;;0.90;;
74064;SDS011;62421;51.412;5.432;2023-07-28T12:39:20;3.73;;;1.07;;
74064;SDS011;62421;51.412;5.432;2023-07-28T12:41:45;2.53;;;0.97;;
74064;SDS011;62421;51.412;5.432;2023-07-28T12:44:10;3.77;;;1.00;;
74064;SDS011;62421;51.412;5.432;2023-07-28T12:46:36;1.60;;;0.83;;
74064;SDS011;62421;51.412;5.432;2023-07-28T12:49:02;2.03;;;1.00;;
74064;SDS011;62421;51.412;5.432;2023-07-28T12:51:29;3.63;;;1.13;;
74064;SDS011;62421;51.412;5.432;2023-07-28T12:53:55;2.20;;;1.13;;
74064;SDS011;62421;51.412;5.432;2023-07-28T12:56:20;3.03;;;0.93;;
74064;SDS011;62421;51.412;5.432;2023-07-28T12:58:46;2.93;;;1.20;;
74064;SDS011;62421;51.412;5.432;2023-07-28T13:01:11;4.60;;;1.17;;
74064;SDS011;62421;51.412;5.432;2023-07-28T13:03:37;1.20;;;0.70;;
74064;SDS011;62421;51.412;5.432;2023-07-28T13:06:03;4.18;;;0.90;;
74064;SDS011;62421;51.412;5.432;2023-07-28T13:08:29;9.07;;;1.30;;
74064;SDS011;62421;51.412;5.432;2023-07-28T13:10:54;5.23;;;1.27;;
74064;SDS011;62421;51.412;5.432;2023-07-28T13:13:20;4.93;;;1.47;;
74064;SDS011;62421;51.412;5.432;2023-07-28T13:15:45;3.63;;;1.15;;
74064;SDS011;62421;51.412;5.432;2023-07-28T13:18:10;5.63;;;1.10;;
74064;SDS011;62421;51.412;5.432;2023-07-28T13:20:36;4.67;;;1.40;;
74064;SDS011;62421;51.412;5.432;2023-07-28T13:23:01;3.07;;;1.07;;
74064;SDS011;62421;51.412;5.432;2023-07-28T13:25:27;3.00;;;1.70;;
74064;SDS011;62421;51.412;5.432;2023-07-28T13:27:52;2.28;;;1.10;;
74064;SDS011;62421;51.412;5.432;2023-07-28T13:30:17;2.03;;;0.93;;
74064;SDS011;62421;51.412;5.432;2023-07-28T13:32:43;3.50;;;1.10;;
74064;SDS011;62421;51.412;5.432;2023-07-28T13:35:08;3.37;;;1.50;;
74064;SDS011;62421;51.412;5.432;2023-07-28T13:37:34;4.57;;;1.60;;
74064;SDS011;62421;51.412;5.432;2023-07-28T13:39:59;2.70;;;1.70;;
74064;SDS011;62421;51.412;5.432;2023-07-28T13:42:24;2.58;;;1.45;;
74064;SDS011;62421;51.412;5.432;2023-07-28T13:44:50;5.55;;;2.10;;
74064;SDS011;62421;51.412;5.432;2023-07-28T13:47:15;4.90;;;2.10;;
74064;SDS011;62421;51.412;5.432;2023-07-28T13:49:41;11.10;;;1.60;;
74064;SDS011;62421;51.412;5.432;2023-07-28T13:52:06;2.97;;;1.10;;
74064;SDS011;62421;51.412;5.432;2023-07-28T13:54:32;4.43;;;1.50;;
74064;SDS011;62421;51.412;5.432;2023-07-28T13:56:58;4.83;;;1.13;;
74064;SDS011;62421;51.412;5.432;2023-07-28T13:59:23;2.97;;;1.50;;
74064;SDS011;62421;51.412;5.432;2023-07-28T14:01:48;2.80;;;1.48;;
74064;SDS011;62421;51.412;5.432;2023-07-28T14:04:15;12.50;;;1.47;;
74064;SDS011;62421;51.412;5.432;2023-07-28T14:06:40;15.77;;;2.40;;
74064;SDS011;62421;51.412;5.432;2023-07-28T14:09:06;3.33;;;1.13;;
74064;SDS011;62421;51.412;5.432;2023-07-28T14:11:31;4.23;;;1.10;;
74064;SDS011;62421;51.412;5.432;2023-07-28T14:13:56;5.10;;;0.90;;
74064;SDS011;62421;51.412;5.432;2023-07-28T14:16:22;6.77;;;1.50;;
74064;SDS011;62421;51.412;5.432;2023-07-28T14:18:47;3.78;;;1.17;;
74064;SDS011;62421;51.412;5.432;2023-07-28T14:21:13;7.13;;;1.40;;
74064;SDS011;62421;51.412;5.432;2023-07-28T14:23:39;13.73;;;1.10;;
74064;SDS011;62421;51.412;5.432;2023-07-28T14:26:04;5.00;;;0.97;;
74064;SDS011;62421;51.412;5.432;2023-07-28T14:28:30;2.37;;;1.00;;
74064;SDS011;62421;51.412;5.432;2023-07-28T14:30:55;3.53;;;1.43;;
74064;SDS011;62421;51.412;5.432;2023-07-28T14:33:20;11.82;;;1.60;;
74064;SDS011;62421;51.412;5.432;2023-07-28T14:35:47;8.10;;;1.58;;
74064;SDS011;62421;51.412;5.432;2023-07-28T14:38:13;4.27;;;1.30;;
74064;SDS011;62421;51.412;5.432;2023-07-28T14:40:39;3.13;;;1.20;;
74064;SDS011;62421;51.412;5.432;2023-07-28T14:43:05;4.93;;;1.40;;
74064;SDS011;62421;51.412;5.432;2023-07-28T14:45:31;3.95;;;1.38;;